Time,TemperatureF,DewpointF,PressureIn,WindDirection,WindDirectionDegrees,WindSpeedMPH,WindSpeedGustMPH,Humidity,HourlyPrecipIn,Conditions,Clouds,dailyrainin,SoftwareType,DateUTC
2013-05-24 00:01:00,59.2,58.3,29.70,WSW,248,0.0,0.0,97,0.18,,,0.65,VWS V14.01,2013-05-24 04:01:00,
2013-05-24 00:06:00,59.2,58.3,29.71,WSW,248,0.0,0.0,97,0.14,,,0.00,VWS V14.01,2013-05-24 04:06:00,
2013-05-24 00:11:00,59.2,58.3,29.71,WSW,248,0.0,0.0,97,0.14,,,0.00,VWS V14.01,2013-05-24 04:11:00,
2013-05-24 00:16:00,59.2,58.3,29.71,WSW,248,0.0,0.0,97,0.10,,,0.00,VWS V14.01,2013-05-24 04:16:00,
2013-05-24 00:21:00,59.3,58.5,29.71,WSW,248,0.0,0.0,97,0.10,,,0.00,VWS V14.01,2013-05-24 04:21:00,
2013-05-24 00:26:00,59.3,58.5,29.71,WSW,248,0.0,0.0,97,0.04,,,0.00,VWS V14.01,2013-05-24 04:26:00,
2013-05-24 00:31:00,59.3,58.5,29.70,WSW,248,0.0,0.0,97,0.04,,,0.00,VWS V14.01,2013-05-24 04:31:00,
2013-05-24 00:36:00,59.3,58.5,29.70,WSW,248,0.0,0.0,97,0.01,,,0.00,VWS V14.01,2013-05-24 04:36:00,
2013-05-24 00:41:00,59.2,58.3,29.70,WSW,248,0.0,0.0,97,0.01,,,0.00,VWS V14.01,2013-05-24 04:41:00,
2013-05-24 00:46:00,59.1,58.2,29.70,WSW,248,0.0,0.0,97,0.00,,,0.00,VWS V14.01,2013-05-24 04:46:00,
2013-05-24 00:51:00,59.0,58.2,29.70,WSW,248,0.0,0.0,97,0.00,,,0.00,VWS V14.01,2013-05-24 04:51:00,
2013-05-24 00:56:00,58.9,58.0,29.70,WSW,248,0.0,0.0,97,0.00,,,0.00,VWS V14.01,2013-05-24 04:56:00,
2013-05-24 01:01:00,58.8,58.0,29.70,WSW,248,0.0,0.0,97,0.00,,,0.00,VWS V14.01,2013-05-24 05:01:00,
2013-05-24 01:06:00,58.8,58.0,29.70,WSW,248,0.0,0.0,97,0.00,,,0.00,VWS V14.01,2013-05-24 05:06:00,
2013-05-24 01:11:00,58.8,58.0,29.69,WSW,248,0.0,0.0,97,0.00,,,0.00,VWS V14.01,2013-05-24 05:11:00,
2013-05-24 01:16:00,58.8,58.0,29.69,WSW,248,0.0,0.0,97,0.00,,,0.00,VWS V14.01,2013-05-24 05:16:00,
2013-05-24 01:21:00,58.7,57.8,29.69,WSW,248,0.0,0.0,97,0.00,,,0.00,VWS V14.01,2013-05-24 05:21:00,
2013-05-24 01:26:00,58.7,57.8,29.69,WSW,248,0.0,0.0,97,0.00,,,0.00,VWS V14.01,2013-05-24 05:26:00,
2013-05-24 01:31:00,58.8,58.0,29.69,WSW,248,0.0,0.0,97,0.00,,,0.00,VWS V14.01,2013-05-24 05:31:00,
2013-05-24 01:36:00,58.9,58.0,29.69,WSW,248,0.0,0.0,97,0.00,,,0.00,VWS V14.01,2013-05-24 05:36:00,
2013-05-24 01:41:00,58.9,58.0,29.69,WSW,248,0.0,0.0,97,0.00,,,0.00,VWS V14.01,2013-05-24 05:41:00,
2013-05-24 01:46:00,58.9,58.0,29.69,WSW,248,0.0,0.0,97,0.00,,,0.00,VWS V14.01,2013-05-24 05:46:00,
2013-05-24 01:51:00,58.9,58.0,29.69,WSW,248,0.0,0.0,97,0.00,,,0.00,VWS V14.01,2013-05-24 05:51:00,
2013-05-24 01:56:00,58.8,58.0,29.69,WSW,248,0.0,0.0,97,0.00,,,0.00,VWS V14.01,2013-05-24 05:56:00,
2013-05-24 02:01:00,58.8,58.0,29.69,WSW,248,0.0,0.0,97,0.00,,,0.00,VWS V14.01,2013-05-24 06:01:00,
2013-05-24 02:06:00,58.8,58.0,29.69,WSW,248,0.0,0.0,97,0.00,,,0.00,VWS V14.01,2013-05-24 06:06:00,
2013-05-24 02:11:00,58.8,58.0,29.68,WSW,248,0.0,0.0,97,0.00,,,0.00,VWS V14.01,2013-05-24 06:11:00,
2013-05-24 02:16:00,58.8,58.0,29.68,WSW,248,0.0,0.0,97,0.00,,,0.00,VWS V14.01,2013-05-24 06:16:00,
2013-05-24 02:21:00,58.8,58.0,29.68,WSW,248,0.0,0.0,97,0.00,,,0.00,VWS V14.01,2013-05-24 06:21:00,
2013-05-24 02:26:00,58.8,58.0,29.68,WSW,248,0.0,0.0,97,0.00,,,0.00,VWS V14.01,2013-05-24 06:26:00,
2013-05-24 02:31:00,58.7,57.8,29.68,WSW,248,0.0,0.0,97,0.00,,,0.00,VWS V14.01,2013-05-24 06:31:00,
2013-05-24 02:36:00,58.6,57.8,29.67,WSW,248,0.0,0.0,97,0.00,,,0.00,VWS V14.01,2013-05-24 06:36:00,
2013-05-24 02:41:00,58.5,57.7,29.68,WSW,248,0.0,1.0,97,0.00,,,0.00,VWS V14.01,2013-05-24 06:41:00,
2013-05-24 02:46:00,58.4,57.6,29.67,WSW,248,0.0,1.0,97,0.00,,,0.00,VWS V14.01,2013-05-24 06:46:00,
2013-05-24 02:51:00,58.4,57.6,29.68,WSW,248,0.0,1.0,97,0.00,,,0.00,VWS V14.01,2013-05-24 06:51:00,
2013-05-24 02:56:00,58.4,57.6,29.68,WSW,248,0.0,0.0,97,0.01,,,0.01,VWS V14.01,2013-05-24 06:56:00,
2013-05-24 03:01:00,58.5,57.7,29.67,WSW,248,0.0,0.0,97,0.01,,,0.01,VWS V14.01,2013-05-24 07:01:00,
2013-05-24 03:06:00,58.6,57.8,29.67,WSW,248,0.0,0.0,97,0.01,,,0.01,VWS V14.01,2013-05-24 07:06:00,
2013-05-24 03:11:00,58.6,57.8,29.67,WSW,248,0.0,0.0,97,0.01,,,0.01,VWS V14.01,2013-05-24 07:11:00,
2013-05-24 03:16:00,58.6,57.8,29.67,WSW,248,0.0,0.0,97,0.01,,,0.01,VWS V14.01,2013-05-24 07:16:00,
2013-05-24 03:21:00,58.6,57.8,29.67,WSW,248,0.0,0.0,97,0.01,,,0.01,VWS V14.01,2013-05-24 07:21:00,
2013-05-24 03:26:00,58.6,57.8,29.67,WSW,248,0.0,0.0,97,0.01,,,0.01,VWS V14.01,2013-05-24 07:26:00,
2013-05-24 03:31:00,58.6,57.8,29.67,WSW,248,0.0,0.0,97,0.01,,,0.01,VWS V14.01,2013-05-24 07:31:00,
2013-05-24 03:36:00,58.6,57.8,29.67,WSW,248,0.0,0.0,97,0.01,,,0.01,VWS V14.01,2013-05-24 07:36:00,
2013-05-24 03:41:00,58.5,57.7,29.67,WSW,248,0.0,0.0,97,0.01,,,0.01,VWS V14.01,2013-05-24 07:41:00,
2013-05-24 03:46:00,58.5,57.7,29.67,WSW,248,0.0,0.0,97,0.01,,,0.01,VWS V14.01,2013-05-24 07:46:00,
2013-05-24 03:51:00,58.5,57.7,29.66,WSW,248,0.0,0.0,97,0.01,,,0.01,VWS V14.01,2013-05-24 07:51:00,
2013-05-24 03:56:00,58.5,57.7,29.66,WSW,248,0.0,0.0,97,0.00,,,0.01,VWS V14.01,2013-05-24 07:56:00,
2013-05-24 04:01:00,58.5,57.7,29.66,WSW,248,0.0,0.0,97,0.00,,,0.01,VWS V14.01,2013-05-24 08:01:00,
2013-05-24 04:06:00,58.5,57.7,29.66,WSW,248,0.0,0.0,97,0.00,,,0.01,VWS V14.01,2013-05-24 08:06:00,
2013-05-24 04:11:00,58.6,57.8,29.66,WSW,248,0.0,0.0,97,0.01,,,0.02,VWS V14.01,2013-05-24 08:11:00,
2013-05-24 04:16:00,58.6,57.8,29.65,WSW,248,0.0,0.0,97,0.01,,,0.02,VWS V14.01,2013-05-24 08:16:00,
2013-05-24 04:21:00,58.7,58.1,29.65,WSW,248,0.0,0.0,98,0.02,,,0.03,VWS V14.01,2013-05-24 08:21:00,
2013-05-24 04:26:00,58.7,57.8,29.66,WSW,248,0.0,0.0,97,0.02,,,0.03,VWS V14.01,2013-05-24 08:26:00,
2013-05-24 04:31:00,58.7,57.8,29.66,WSW,248,0.0,0.0,97,0.03,,,0.04,VWS V14.01,2013-05-24 08:31:00,
2013-05-24 04:36:00,58.5,57.7,29.66,WSW,248,1.0,1.0,97,0.04,,,0.05,VWS V14.01,2013-05-24 08:36:00,
2013-05-24 04:41:00,58.3,57.5,29.66,NNW,344,0.0,4.0,97,0.04,,,0.05,VWS V14.01,2013-05-24 08:41:00,
2013-05-24 04:46:00,57.9,57.1,29.66,NNW,344,0.0,0.0,97,0.04,,,0.05,VWS V14.01,2013-05-24 08:46:00,
2013-05-24 04:51:00,57.5,56.7,29.66,NNW,344,0.0,0.0,97,0.05,,,0.06,VWS V14.01,2013-05-24 08:51:00,
2013-05-24 04:56:00,57.2,56.4,29.66,NNW,344,0.0,0.0,97,0.06,,,0.07,VWS V14.01,2013-05-24 08:56:00,
2013-05-24 05:01:00,56.9,56.1,29.66,NNW,344,0.0,1.0,97,0.06,,,0.07,VWS V14.01,2013-05-24 09:01:00,
2013-05-24 05:05:00,56.5,55.7,29.66,NNW,344,0.0,0.0,97,0.07,,,0.08,VWS V14.01,2013-05-24 09:05:00,
2013-05-24 05:10:00,56.3,55.5,29.66,NNW,344,0.0,0.0,97,0.08,,,0.09,VWS V14.01,2013-05-24 09:10:00,
2013-05-24 05:15:00,56.0,55.2,29.66,NNW,344,0.0,0.0,97,0.07,,,0.09,VWS V14.01,2013-05-24 09:15:00,
2013-05-24 05:20:00,55.6,54.8,29.66,NNW,344,0.0,1.0,97,0.08,,,0.10,VWS V14.01,2013-05-24 09:20:00,
2013-05-24 05:25:00,55.3,54.5,29.65,NNW,344,0.0,0.0,97,0.08,,,0.11,VWS V14.01,2013-05-24 09:25:00,
2013-05-24 05:30:00,55.3,54.5,29.65,NNW,344,0.0,0.0,97,0.08,,,0.11,VWS V14.01,2013-05-24 09:30:00,
2013-05-24 05:35:00,55.6,54.8,29.65,ENE,59,0.0,2.0,97,0.08,,,0.12,VWS V14.01,2013-05-24 09:35:00,
2013-05-24 05:40:00,55.5,54.7,29.65,ENE,59,1.0,2.0,97,0.08,,,0.12,VWS V14.01,2013-05-24 09:40:00,
2013-05-24 05:45:00,55.1,54.3,29.65,ENE,71,0.0,0.0,97,0.08,,,0.13,VWS V14.01,2013-05-24 09:45:00,
2013-05-24 05:50:00,54.9,54.1,29.66,NE,50,0.0,3.0,97,0.08,,,0.13,VWS V14.01,2013-05-24 09:50:00,
2013-05-24 05:55:00,54.6,53.8,29.67,East,84,0.0,0.0,97,0.06,,,0.13,VWS V14.01,2013-05-24 09:55:00,
2013-05-24 06:00:00,54.4,53.6,29.67,North,350,1.0,4.0,97,0.06,,,0.13,VWS V14.01,2013-05-24 10:00:00,
2013-05-24 06:05:00,53.2,52.1,29.67,North,360,0.0,1.0,96,0.05,,,0.13,VWS V14.01,2013-05-24 10:05:00,
2013-05-24 06:10:00,52.8,52.0,29.67,North,360,0.0,1.0,97,0.05,,,0.13,VWS V14.01,2013-05-24 10:10:00,
2013-05-24 06:15:00,52.5,51.7,29.67,North,360,0.0,0.0,97,0.04,,,0.13,VWS V14.01,2013-05-24 10:15:00,
2013-05-24 06:20:00,52.2,51.4,29.67,North,360,0.0,1.0,97,0.04,,,0.13,VWS V14.01,2013-05-24 10:20:00,
2013-05-24 06:25:00,52.0,51.2,29.67,North,355,0.0,0.0,97,0.02,,,0.13,VWS V14.01,2013-05-24 10:25:00,
2013-05-24 06:30:00,51.9,51.1,29.67,North,355,0.0,0.0,97,0.02,,,0.13,VWS V14.01,2013-05-24 10:30:00,
2013-05-24 06:35:00,51.7,50.9,29.67,North,355,0.0,0.0,97,0.01,,,0.13,VWS V14.01,2013-05-24 10:35:00,
2013-05-24 06:40:00,51.5,50.7,29.68,NW,324,0.0,3.0,97,0.01,,,0.13,VWS V14.01,2013-05-24 10:40:00,
2013-05-24 06:45:00,51.3,50.5,29.68,NNW,334,0.0,0.0,97,0.01,,,0.13,VWS V14.01,2013-05-24 10:45:00,
2013-05-24 06:50:00,51.1,50.3,29.68,NW,316,0.0,1.0,97,0.01,,,0.13,VWS V14.01,2013-05-24 10:50:00,
2013-05-24 06:55:00,50.7,49.9,29.68,NNW,346,2.0,2.0,97,0.00,,,0.13,VWS V14.01,2013-05-24 10:55:00,
2013-05-24 07:00:00,50.4,49.6,29.68,NW,320,0.0,3.0,97,0.00,,,0.13,VWS V14.01,2013-05-24 11:00:00,
2013-05-24 07:05:00,50.1,49.3,29.69,NW,325,0.0,4.0,97,0.00,,,0.13,VWS V14.01,2013-05-24 11:05:00,
2013-05-24 07:10:00,49.7,48.9,29.69,NNW,344,0.0,5.0,97,0.00,,,0.13,VWS V14.01,2013-05-24 11:10:00,
2013-05-24 07:15:00,49.6,48.8,29.69,NNW,333,1.0,4.0,97,0.00,,,0.13,VWS V14.01,2013-05-24 11:15:00,
2013-05-24 07:20:00,49.5,48.7,29.69,NNW,343,0.0,4.0,97,0.00,,,0.13,VWS V14.01,2013-05-24 11:20:00,
2013-05-24 07:25:00,49.5,48.7,29.69,NNW,343,1.0,1.0,97,0.00,,,0.13,VWS V14.01,2013-05-24 11:25:00,
2013-05-24 07:30:00,49.4,48.6,29.70,NW,309,0.0,2.0,97,0.00,,,0.13,VWS V14.01,2013-05-24 11:30:00,
2013-05-24 07:35:00,49.2,48.4,29.70,West,267,3.0,3.0,97,0.00,,,0.13,VWS V14.01,2013-05-24 11:35:00,
2013-05-24 07:40:00,49.1,48.3,29.70,NW,319,0.0,7.0,97,0.00,,,0.13,VWS V14.01,2013-05-24 11:40:00,
2013-05-24 07:45:00,49.2,48.4,29.71,West,265,0.0,0.0,97,0.00,,,0.13,VWS V14.01,2013-05-24 11:45:00,
2013-05-24 07:50:00,49.2,48.4,29.71,North,10,1.0,1.0,97,0.00,,,0.13,VWS V14.01,2013-05-24 11:50:00,
2013-05-24 07:55:00,49.1,48.3,29.71,NE,37,0.0,0.0,97,0.00,,,0.13,VWS V14.01,2013-05-24 11:55:00,
2013-05-24 08:00:00,48.9,48.1,29.72,NE,37,0.0,0.0,97,0.00,,,0.13,VWS V14.01,2013-05-24 12:00:00,
2013-05-24 08:05:00,48.8,48.0,29.72,WSW,244,0.0,5.0,97,0.00,,,0.13,VWS V14.01,2013-05-24 12:05:00,
2013-05-24 08:10:00,48.6,47.5,29.72,WNW,298,0.0,5.0,96,0.00,,,0.13,VWS V14.01,2013-05-24 12:10:00,
2013-05-24 08:15:00,48.3,47.2,29.73,West,281,0.0,0.0,96,0.00,,,0.13,VWS V14.01,2013-05-24 12:15:00,
2013-05-24 08:20:00,48.2,47.1,29.73,NW,315,0.0,4.0,96,0.00,,,0.13,VWS V14.01,2013-05-24 12:20:00,
2013-05-24 08:25:00,48.0,46.9,29.74,WNW,292,0.0,0.0,96,0.00,,,0.13,VWS V14.01,2013-05-24 12:25:00,
2013-05-24 08:30:00,47.8,46.7,29.74,WNW,296,3.0,3.0,96,0.00,,,0.13,VWS V14.01,2013-05-24 12:30:00,
2013-05-24 08:35:00,47.4,46.3,29.75,WSW,242,0.0,1.0,96,0.00,,,0.13,VWS V14.01,2013-05-24 12:35:00,
2013-05-24 08:40:00,47.3,46.2,29.75,NNW,331,0.0,3.0,96,0.00,,,0.13,VWS V14.01,2013-05-24 12:40:00,
2013-05-24 08:45:00,47.1,46.0,29.76,NNW,337,2.0,4.0,96,0.01,,,0.14,VWS V14.01,2013-05-24 12:45:00,
2013-05-24 08:50:00,46.7,45.3,29.76,WNW,300,1.0,5.0,95,0.02,,,0.15,VWS V14.01,2013-05-24 12:50:00,
2013-05-24 08:55:00,46.6,45.5,29.76,North,355,0.0,0.0,96,0.03,,,0.16,VWS V14.01,2013-05-24 12:55:00,
2013-05-24 09:00:00,46.5,45.4,29.77,NW,316,0.0,7.0,96,0.04,,,0.17,VWS V14.01,2013-05-24 13:00:00,
2013-05-24 09:05:00,46.2,45.1,29.77,West,262,4.0,4.0,96,0.04,,,0.17,VWS V14.01,2013-05-24 13:05:00,
2013-05-24 09:10:00,46.1,45.0,29.77,WSW,257,0.0,5.0,96,0.05,,,0.18,VWS V14.01,2013-05-24 13:10:00,
2013-05-24 09:15:00,46.1,45.0,29.77,NW,317,2.0,2.0,96,0.06,,,0.19,VWS V14.01,2013-05-24 13:15:00,
2013-05-24 09:20:00,46.1,45.0,29.78,North,350,0.0,4.0,96,0.06,,,0.19,VWS V14.01,2013-05-24 13:20:00,
2013-05-24 09:25:00,46.0,44.9,29.78,North,360,0.0,3.0,96,0.07,,,0.20,VWS V14.01,2013-05-24 13:25:00,
2013-05-24 09:30:00,45.8,44.7,29.78,North,355,4.0,6.0,96,0.07,,,0.20,VWS V14.01,2013-05-24 13:30:00,
2013-05-24 09:35:00,45.7,44.6,29.78,North,355,0.0,1.0,96,0.07,,,0.20,VWS V14.01,2013-05-24 13:35:00,
2013-05-24 09:40:00,45.8,44.7,29.78,North,355,0.0,3.0,96,0.07,,,0.20,VWS V14.01,2013-05-24 13:40:00,
2013-05-24 09:45:00,45.5,44.4,29.78,NNW,348,0.0,0.0,96,0.06,,,0.20,VWS V14.01,2013-05-24 13:45:00,
2013-05-24 09:50:00,45.7,44.9,29.79,ENE,65,0.0,2.0,97,0.07,,,0.21,VWS V14.01,2013-05-24 13:50:00,
2013-05-24 09:55:00,45.8,44.7,29.79,ENE,72,2.0,2.0,96,0.05,,,0.21,VWS V14.01,2013-05-24 13:55:00,
2013-05-24 10:00:00,45.5,44.4,29.79,ENE,69,0.0,2.0,96,0.05,,,0.21,VWS V14.01,2013-05-24 14:00:00,
2013-05-24 10:05:00,45.4,44.3,29.80,SSW,211,0.0,0.0,96,0.04,,,0.21,VWS V14.01,2013-05-24 14:05:00,
2013-05-24 10:10:00,45.3,44.2,29.80,SSW,211,0.0,0.0,96,0.04,,,0.21,VWS V14.01,2013-05-24 14:10:00,
2013-05-24 10:15:00,45.4,44.3,29.80,SSW,211,0.0,0.0,96,0.02,,,0.21,VWS V14.01,2013-05-24 14:15:00,
2013-05-24 10:20:00,45.6,44.8,29.81,SSW,212,0.0,1.0,97,0.02,,,0.21,VWS V14.01,2013-05-24 14:20:00,
2013-05-24 10:25:00,45.4,44.3,29.81,North,355,4.0,4.0,96,0.01,,,0.21,VWS V14.01,2013-05-24 14:25:00,
2013-05-24 10:30:00,45.5,44.4,29.81,NNW,335,3.0,5.0,96,0.02,,,0.22,VWS V14.01,2013-05-24 14:30:00,
2013-05-24 10:35:00,45.6,44.5,29.81,NNW,336,2.0,3.0,96,0.02,,,0.22,VWS V14.01,2013-05-24 14:35:00,
2013-05-24 10:40:00,45.4,44.3,29.82,North,350,2.0,4.0,96,0.02,,,0.22,VWS V14.01,2013-05-24 14:40:00,
2013-05-24 10:45:00,45.2,44.1,29.82,North,351,0.0,0.0,96,0.03,,,0.23,VWS V14.01,2013-05-24 14:45:00,
2013-05-24 10:50:00,45.6,44.8,29.82,North,5,2.0,6.0,97,0.03,,,0.23,VWS V14.01,2013-05-24 14:50:00,
2013-05-24 10:55:00,45.5,44.4,29.82,North,355,0.0,0.0,96,0.03,,,0.24,VWS V14.01,2013-05-24 14:55:00,
2013-05-24 11:00:00,45.2,44.1,29.83,NNW,348,0.0,4.0,96,0.04,,,0.25,VWS V14.01,2013-05-24 15:00:00,
2013-05-24 11:05:00,45.4,44.6,29.83,NNW,348,4.0,4.0,97,0.04,,,0.25,VWS V14.01,2013-05-24 15:05:00,
2013-05-24 11:10:00,45.4,44.6,29.83,North,5,2.0,5.0,97,0.04,,,0.25,VWS V14.01,2013-05-24 15:10:00,
2013-05-24 11:15:00,45.6,44.8,29.83,NNW,336,4.0,4.0,97,0.04,,,0.25,VWS V14.01,2013-05-24 15:15:00,
2013-05-24 11:20:00,45.1,44.0,29.83,North,355,5.0,6.0,96,0.04,,,0.25,VWS V14.01,2013-05-24 15:20:00,
2013-05-24 11:25:00,44.8,43.7,29.84,North,349,7.0,7.0,96,0.04,,,0.25,VWS V14.01,2013-05-24 15:25:00,
2013-05-24 11:30:00,45.0,43.9,29.84,North,350,4.0,7.0,96,0.04,,,0.25,VWS V14.01,2013-05-24 15:30:00,
2013-05-24 11:35:00,45.2,44.1,29.84,NNW,342,5.0,6.0,96,0.03,,,0.25,VWS V14.01,2013-05-24 15:35:00,
2013-05-24 11:40:00,44.9,43.8,29.84,NNW,333,1.0,7.0,96,0.03,,,0.25,VWS V14.01,2013-05-24 15:40:00,
2013-05-24 11:45:00,44.9,43.8,29.84,NNW,345,5.0,6.0,96,0.02,,,0.25,VWS V14.01,2013-05-24 15:45:00,
2013-05-24 11:50:00,44.6,43.3,29.84,North,360,4.0,10.0,95,0.02,,,0.25,VWS V14.01,2013-05-24 15:50:00,
2013-05-24 11:55:00,44.8,43.7,29.84,North,351,4.0,4.0,96,0.01,,,0.25,VWS V14.01,2013-05-24 15:55:00,
2013-05-24 12:00:00,45.0,43.9,29.84,NNW,336,6.0,6.0,96,0.01,,,0.25,VWS V14.01,2013-05-24 16:00:00,
2013-05-24 12:05:00,44.8,43.5,29.85,NNW,340,3.0,4.0,95,0.00,,,0.25,VWS V14.01,2013-05-24 16:05:00,
2013-05-24 12:10:00,44.5,43.2,29.85,NNW,347,2.0,9.0,95,0.00,,,0.25,VWS V14.01,2013-05-24 16:10:00,
2013-05-24 12:15:00,44.4,43.1,29.85,North,355,1.0,1.0,95,0.00,,,0.25,VWS V14.01,2013-05-24 16:15:00,
2013-05-24 12:20:00,44.4,43.1,29.86,NNW,341,3.0,8.0,95,0.00,,,0.25,VWS V14.01,2013-05-24 16:20:00,
2013-05-24 12:25:00,44.1,42.5,29.86,NNW,333,2.0,6.0,94,0.00,,,0.25,VWS V14.01,2013-05-24 16:25:00,
2013-05-24 12:30:00,43.9,42.3,29.86,North,350,0.0,6.0,94,0.00,,,0.25,VWS V14.01,2013-05-24 16:30:00,
2013-05-24 12:35:00,43.9,42.3,29.87,NNE,13,0.0,4.0,94,0.00,,,0.25,VWS V14.01,2013-05-24 16:35:00,
2013-05-24 12:40:00,43.9,42.3,29.87,North,360,0.0,9.0,94,0.00,,,0.25,VWS V14.01,2013-05-24 16:40:00,
2013-05-24 12:45:00,44.0,42.7,29.87,North,5,0.0,0.0,95,0.00,,,0.25,VWS V14.01,2013-05-24 16:45:00,
2013-05-24 12:50:00,43.8,42.2,29.87,North,350,7.0,11.0,94,0.00,,,0.25,VWS V14.01,2013-05-24 16:50:00,
2013-05-24 12:55:00,43.7,42.1,29.87,NNW,343,0.0,0.0,94,0.00,,,0.25,VWS V14.01,2013-05-24 16:55:00,
2013-05-24 13:00:00,43.6,42.0,29.87,North,355,5.0,10.0,94,0.00,,,0.25,VWS V14.01,2013-05-24 17:00:00,
2013-05-24 13:05:00,43.4,41.8,29.88,NNW,331,10.0,10.0,94,0.00,,,0.25,VWS V14.01,2013-05-24 17:05:00,
2013-05-24 13:10:00,43.2,41.6,29.88,North,355,4.0,15.0,94,0.00,,,0.25,VWS V14.01,2013-05-24 17:10:00,
2013-05-24 13:15:00,43.2,41.3,29.88,NNW,329,7.0,7.0,93,0.00,,,0.25,VWS V14.01,2013-05-24 17:15:00,
2013-05-24 13:20:00,43.2,41.6,29.87,North,350,2.0,11.0,94,0.00,,,0.25,VWS V14.01,2013-05-24 17:20:00,
2013-05-24 13:25:00,43.4,42.1,29.87,NW,321,6.0,6.0,95,0.00,,,0.25,VWS V14.01,2013-05-24 17:25:00,
2013-05-24 13:30:00,43.6,42.3,29.88,NE,37,10.0,10.0,95,0.00,,,0.25,VWS V14.01,2013-05-24 17:30:00,
2013-05-24 13:35:00,43.5,41.9,29.88,NNW,333,0.0,1.0,94,0.00,,,0.25,VWS V14.01,2013-05-24 17:35:00,
2013-05-24 13:40:00,43.7,42.1,29.88,NNW,346,7.0,10.0,94,0.00,,,0.25,VWS V14.01,2013-05-24 17:40:00,
2013-05-24 13:45:00,44.0,42.7,29.89,NNW,345,5.0,6.0,95,0.00,,,0.25,VWS V14.01,2013-05-24 17:45:00,
2013-05-24 13:50:00,44.1,42.5,29.89,North,5,2.0,6.0,94,0.00,,,0.25,VWS V14.01,2013-05-24 17:50:00,
2013-05-24 13:55:00,44.1,42.5,29.89,NNW,329,6.0,6.0,94,0.00,,,0.25,VWS V14.01,2013-05-24 17:55:00,
2013-05-24 14:00:00,44.0,42.1,29.89,North,11,0.0,10.0,93,0.00,,,0.25,VWS V14.01,2013-05-24 18:00:00,
2013-05-24 14:05:00,44.0,42.1,29.89,NNE,33,3.0,4.0,93,0.00,,,0.25,VWS V14.01,2013-05-24 18:05:00,
2013-05-24 14:10:00,44.3,42.7,29.89,NNW,346,0.0,4.0,94,0.00,,,0.25,VWS V14.01,2013-05-24 18:10:00,
2013-05-24 14:15:00,44.3,42.4,29.89,NNW,328,3.0,3.0,93,0.00,,,0.25,VWS V14.01,2013-05-24 18:15:00,
2013-05-24 14:20:00,44.4,42.5,29.90,NNW,342,6.0,6.0,93,0.00,,,0.25,VWS V14.01,2013-05-24 18:20:00,
2013-05-24 14:25:00,44.2,42.0,29.89,NNE,14,0.0,0.0,92,0.00,,,0.25,VWS V14.01,2013-05-24 18:25:00,
2013-05-24 14:30:00,44.1,41.9,29.90,NW,320,4.0,13.0,92,0.00,,,0.25,VWS V14.01,2013-05-24 18:30:00,
2013-05-24 14:35:00,44.2,42.3,29.90,NNE,15,0.0,1.0,93,0.00,,,0.25,VWS V14.01,2013-05-24 18:35:00,
2013-05-24 14:40:00,44.1,42.2,29.90,North,350,3.0,7.0,93,0.00,,,0.25,VWS V14.01,2013-05-24 18:40:00,
2013-05-24 14:45:00,44.2,42.3,29.90,NNW,340,4.0,10.0,93,0.00,,,0.25,VWS V14.01,2013-05-24 18:45:00,
2013-05-24 14:50:00,44.0,41.8,29.91,North,350,7.0,10.0,92,0.00,,,0.25,VWS V14.01,2013-05-24 18:50:00,
2013-05-24 14:55:00,44.0,41.8,29.91,North,5,0.0,3.0,92,0.00,,,0.25,VWS V14.01,2013-05-24 18:55:00,
2013-05-24 15:00:00,43.9,41.7,29.90,North,5,7.0,8.0,92,0.00,,,0.25,VWS V14.01,2013-05-24 19:00:00,
2013-05-24 15:05:00,43.8,41.6,29.90,North,355,2.0,6.0,92,0.00,,,0.25,VWS V14.01,2013-05-24 19:05:00,
2013-05-24 15:10:00,43.7,41.2,29.90,North,5,4.0,11.0,91,0.00,,,0.25,VWS V14.01,2013-05-24 19:10:00,
2013-05-24 15:15:00,43.8,41.6,29.90,NNW,345,1.0,1.0,92,0.00,,,0.25,VWS V14.01,2013-05-24 19:15:00,
2013-05-24 15:20:00,43.6,41.2,29.90,NNW,348,4.0,13.0,91,0.00,,,0.25,VWS V14.01,2013-05-24 19:20:00,
2013-05-24 15:25:00,43.7,41.5,29.91,ENE,69,0.0,0.0,92,0.00,,,0.25,VWS V14.01,2013-05-24 19:25:00,
2013-05-24 15:30:00,43.7,41.5,29.91,NNE,28,0.0,5.0,92,0.00,,,0.25,VWS V14.01,2013-05-24 19:30:00,
2013-05-24 15:35:00,43.5,41.3,29.91,NNW,348,2.0,4.0,92,0.00,,,0.25,VWS V14.01,2013-05-24 19:35:00,
2013-05-24 15:40:00,43.5,41.3,29.91,North,355,0.0,8.0,92,0.00,,,0.25,VWS V14.01,2013-05-24 19:40:00,
2013-05-24 15:45:00,43.4,41.5,29.91,North,350,11.0,11.0,93,0.00,,,0.25,VWS V14.01,2013-05-24 19:45:00,
2013-05-24 15:50:00,43.2,41.0,29.91,North,355,7.0,13.0,92,0.00,,,0.25,VWS V14.01,2013-05-24 19:50:00,
2013-05-24 15:55:00,43.1,41.2,29.92,NW,306,1.0,3.0,93,0.00,,,0.25,VWS V14.01,2013-05-24 19:55:00,
2013-05-24 16:00:00,42.9,40.7,29.92,NNW,328,7.0,13.0,92,0.00,,,0.25,VWS V14.01,2013-05-24 20:00:00,
2013-05-24 16:05:00,42.9,40.7,29.92,North,351,5.0,5.0,92,0.00,,,0.25,VWS V14.01,2013-05-24 20:05:00,
2013-05-24 16:10:00,43.0,41.1,29.92,North,5,6.0,8.0,93,0.00,,,0.25,VWS V14.01,2013-05-24 20:10:00,
2013-05-24 16:15:00,42.9,40.7,29.92,North,5,0.0,1.0,92,0.00,,,0.25,VWS V14.01,2013-05-24 20:15:00,
2013-05-24 16:20:00,42.9,40.7,29.92,NNE,16,3.0,11.0,92,0.00,,,0.25,VWS V14.01,2013-05-24 20:20:00,
2013-05-24 16:25:00,42.9,40.7,29.93,North,355,8.0,8.0,92,0.00,,,0.25,VWS V14.01,2013-05-24 20:25:00,
2013-05-24 16:30:00,42.9,41.0,29.93,North,351,0.0,9.0,93,0.00,,,0.25,VWS V14.01,2013-05-24 20:30:00,
2013-05-24 16:35:00,42.8,40.9,29.93,North,351,0.0,0.0,93,0.00,,,0.25,VWS V14.01,2013-05-24 20:35:00,
2013-05-24 16:40:00,42.7,41.1,29.94,NNE,22,5.0,7.0,94,0.00,,,0.25,VWS V14.01,2013-05-24 20:40:00,
2013-05-24 16:45:00,42.5,40.6,29.93,North,355,2.0,2.0,93,0.01,,,0.26,VWS V14.01,2013-05-24 20:45:00,
2013-05-24 16:50:00,42.5,40.9,29.94,NNW,348,0.0,7.0,94,0.01,,,0.26,VWS V14.01,2013-05-24 20:50:00,
2013-05-24 16:55:00,42.7,41.4,29.94,NNW,336,0.0,2.0,95,0.01,,,0.26,VWS V14.01,2013-05-24 20:55:00,
2013-05-24 17:00:00,42.6,41.3,29.93,NNE,28,0.0,8.0,95,0.01,,,0.26,VWS V14.01,2013-05-24 21:00:00,
2013-05-24 17:05:00,42.5,41.2,29.94,NNW,348,4.0,4.0,95,0.01,,,0.26,VWS V14.01,2013-05-24 21:05:00,
2013-05-24 17:10:00,42.3,41.0,29.94,NE,49,0.0,6.0,95,0.01,,,0.26,VWS V14.01,2013-05-24 21:10:00,
2013-05-24 17:15:00,42.3,41.0,29.94,NE,39,2.0,6.0,95,0.01,,,0.26,VWS V14.01,2013-05-24 21:15:00,
2013-05-24 17:20:00,42.2,40.9,29.94,NNW,327,4.0,12.0,95,0.01,,,0.26,VWS V14.01,2013-05-24 21:20:00,
2013-05-24 17:25:00,42.1,40.8,29.94,North,11,0.0,0.0,95,0.01,,,0.26,VWS V14.01,2013-05-24 21:25:00,
2013-05-24 17:30:00,42.1,40.8,29.95,North,350,4.0,8.0,95,0.01,,,0.26,VWS V14.01,2013-05-24 21:30:00,
2013-05-24 17:35:00,42.1,40.8,29.95,NNE,14,8.0,9.0,95,0.01,,,0.26,VWS V14.01,2013-05-24 21:35:00,
2013-05-24 17:40:00,42.1,40.8,29.95,North,350,0.0,9.0,95,0.01,,,0.26,VWS V14.01,2013-05-24 21:40:00,
2013-05-24 17:45:00,42.2,40.9,29.95,North,350,0.0,1.0,95,0.00,,,0.26,VWS V14.01,2013-05-24 21:45:00,
2013-05-24 17:50:00,42.2,40.9,29.95,NNW,345,0.0,7.0,95,0.00,,,0.26,VWS V14.01,2013-05-24 21:50:00,
2013-05-24 17:55:00,42.1,40.8,29.95,NNW,345,0.0,0.0,95,0.01,,,0.27,VWS V14.01,2013-05-24 21:55:00,
2013-05-24 18:00:00,42.2,41.1,29.95,North,5,0.0,4.0,96,0.01,,,0.27,VWS V14.01,2013-05-24 22:00:00,
2013-05-24 18:05:00,42.3,41.2,29.95,NNW,336,2.0,5.0,96,0.01,,,0.27,VWS V14.01,2013-05-24 22:05:00,
2013-05-24 18:10:00,42.2,41.1,29.95,NNW,341,0.0,5.0,96,0.01,,,0.27,VWS V14.01,2013-05-24 22:10:00,
2013-05-24 18:15:00,42.1,41.0,29.95,NNW,345,3.0,18.0,96,0.01,,,0.27,VWS V14.01,2013-05-24 22:15:00,
2013-05-24 18:20:00,42.2,41.1,29.95,NNW,344,2.0,4.0,96,0.01,,,0.27,VWS V14.01,2013-05-24 22:20:00,
2013-05-24 18:25:00,42.1,41.0,29.95,North,360,0.0,6.0,96,0.01,,,0.27,VWS V14.01,2013-05-24 22:25:00,
2013-05-24 18:30:00,42.1,41.0,29.95,NNE,19,0.0,8.0,96,0.01,,,0.27,VWS V14.01,2013-05-24 22:30:00,
2013-05-24 18:35:00,41.9,40.8,29.95,North,5,5.0,8.0,96,0.01,,,0.27,VWS V14.01,2013-05-24 22:35:00,
2013-05-24 18:40:00,41.9,40.8,29.95,NNW,332,5.0,6.0,96,0.01,,,0.27,VWS V14.01,2013-05-24 22:40:00,
2013-05-24 18:45:00,41.9,40.8,29.95,NNW,333,0.0,6.0,96,0.02,,,0.28,VWS V14.01,2013-05-24 22:45:00,
2013-05-24 18:50:00,41.9,40.8,29.95,East,88,0.0,3.0,96,0.02,,,0.28,VWS V14.01,2013-05-24 22:50:00,
2013-05-24 18:55:00,42.0,40.9,29.96,NNW,341,1.0,3.0,96,0.02,,,0.28,VWS V14.01,2013-05-24 22:55:00,
2013-05-24 19:00:00,42.0,40.9,29.96,NNW,341,0.0,2.0,96,0.02,,,0.28,VWS V14.01,2013-05-24 23:00:00,
2013-05-24 19:05:00,42.0,40.9,29.96,East,94,0.0,2.0,96,0.02,,,0.28,VWS V14.01,2013-05-24 23:05:00,
2013-05-24 19:10:00,42.2,41.4,29.95,East,94,0.0,0.0,97,0.01,,,0.28,VWS V14.01,2013-05-24 23:10:00,
2013-05-24 19:15:00,42.2,41.4,29.96,East,94,0.0,0.0,97,0.01,,,0.28,VWS V14.01,2013-05-24 23:15:00,
2013-05-24 19:20:00,42.2,41.4,29.96,East,94,0.0,1.0,97,0.01,,,0.28,VWS V14.01,2013-05-24 23:20:00,
2013-05-24 19:25:00,42.2,41.1,29.96,NNW,347,0.0,2.0,96,0.01,,,0.28,VWS V14.01,2013-05-24 23:25:00,
2013-05-24 19:30:00,42.1,41.3,29.96,NNW,347,0.0,0.0,97,0.01,,,0.28,VWS V14.01,2013-05-24 23:30:00,
2013-05-24 19:35:00,42.1,41.3,29.96,North,350,0.0,4.0,97,0.01,,,0.28,VWS V14.01,2013-05-24 23:35:00,
2013-05-24 19:40:00,42.0,41.2,29.96,North,350,0.0,2.0,97,0.02,,,0.29,VWS V14.01,2013-05-24 23:40:00,
2013-05-24 19:45:00,42.0,41.2,29.96,North,350,0.0,2.0,97,0.02,,,0.29,VWS V14.01,2013-05-24 23:45:00,
2013-05-24 19:50:00,42.0,41.2,29.95,NE,51,0.0,2.0,97,0.01,,,0.29,VWS V14.01,2013-05-24 23:50:00,
2013-05-24 19:55:00,42.0,41.2,29.96,NE,51,0.0,2.0,97,0.01,,,0.29,VWS V14.01,2013-05-24 23:55:00,
2013-05-24 20:00:00,42.0,41.2,29.96,NE,51,0.0,0.0,97,0.01,,,0.29,VWS V14.01,2013-05-25 00:00:00,
2013-05-24 20:05:00,41.9,41.1,29.96,East,94,0.0,2.0,97,0.01,,,0.29,VWS V14.01,2013-05-25 00:05:00,
2013-05-24 20:10:00,41.9,41.1,29.97,East,94,0.0,1.0,97,0.01,,,0.29,VWS V14.01,2013-05-25 00:10:00,
2013-05-24 20:15:00,41.9,41.1,29.96,East,94,0.0,1.0,97,0.01,,,0.29,VWS V14.01,2013-05-25 00:15:00,
2013-05-24 20:20:00,42.0,41.2,29.96,East,94,0.0,1.0,97,0.01,,,0.29,VWS V14.01,2013-05-25 00:20:00,
2013-05-24 20:25:00,42.0,41.2,29.96,NNW,329,0.0,3.0,97,0.01,,,0.29,VWS V14.01,2013-05-25 00:25:00,
2013-05-24 20:30:00,41.8,41.0,29.96,NNE,30,3.0,4.0,97,0.02,,,0.30,VWS V14.01,2013-05-25 00:30:00,
2013-05-24 20:35:00,41.9,41.1,29.96,NNW,329,0.0,4.0,97,0.02,,,0.30,VWS V14.01,2013-05-25 00:35:00,
2013-05-24 20:40:00,41.9,41.1,29.96,NNE,27,0.0,2.0,97,0.02,,,0.30,VWS V14.01,2013-05-25 00:40:00,
2013-05-24 20:45:00,42.0,41.2,29.97,NNE,27,0.0,2.0,97,0.02,,,0.30,VWS V14.01,2013-05-25 00:45:00,
2013-05-24 20:50:00,41.9,41.1,29.98,ESE,117,1.0,6.0,97,0.01,,,0.30,VWS V14.01,2013-05-25 00:50:00,
2013-05-24 20:55:00,42.0,41.2,29.98,ESE,117,0.0,6.0,97,0.02,,,0.31,VWS V14.01,2013-05-25 00:55:00,
2013-05-24 21:00:00,42.0,41.2,29.99,ESE,117,1.0,1.0,97,0.02,,,0.31,VWS V14.01,2013-05-25 01:00:00,
2013-05-24 21:05:00,42.0,41.2,29.98,East,98,0.0,2.0,97,0.04,,,0.33,VWS V14.01,2013-05-25 01:05:00,
2013-05-24 21:10:00,42.0,41.2,29.98,East,80,1.0,1.0,97,0.06,,,0.35,VWS V14.01,2013-05-25 01:10:00,
2013-05-24 21:15:00,42.0,41.2,29.98,NNW,348,0.0,5.0,97,0.07,,,0.36,VWS V14.01,2013-05-25 01:15:00,
2013-05-24 21:20:00,41.9,41.1,29.98,NNW,348,0.0,4.0,97,0.08,,,0.37,VWS V14.01,2013-05-25 01:20:00,
2013-05-24 21:25:00,42.0,41.2,29.98,NNE,26,0.0,4.0,97,0.10,,,0.39,VWS V14.01,2013-05-25 01:25:00,
2013-05-24 21:30:00,42.0,41.2,29.98,NNW,340,0.0,4.0,97,0.10,,,0.39,VWS V14.01,2013-05-25 01:30:00,
2013-05-24 21:35:00,41.9,41.1,29.97,North,355,0.0,4.0,97,0.12,,,0.41,VWS V14.01,2013-05-25 01:35:00,
2013-05-24 21:40:00,41.9,41.1,29.97,North,355,2.0,2.0,97,0.13,,,0.43,VWS V14.01,2013-05-25 01:40:00,
2013-05-24 21:45:00,41.9,41.1,29.98,North,350,0.0,3.0,97,0.14,,,0.44,VWS V14.01,2013-05-25 01:45:00,
2013-05-24 21:50:00,41.9,41.1,29.98,North,350,0.0,3.0,97,0.15,,,0.45,VWS V14.01,2013-05-25 01:50:00,
2013-05-24 21:55:00,41.9,41.1,29.99,NNW,344,3.0,6.0,97,0.15,,,0.45,VWS V14.01,2013-05-25 01:55:00,
2013-05-24 22:00:00,41.9,41.1,29.99,NNE,26,0.0,1.0,97,0.15,,,0.46,VWS V14.01,2013-05-25 02:00:00,
2013-05-24 22:05:00,41.9,41.1,30.00,North,351,3.0,3.0,97,0.15,,,0.46,VWS V14.01,2013-05-25 02:05:00,
2013-05-24 22:10:00,41.9,41.1,29.99,NNW,348,0.0,4.0,97,0.13,,,0.46,VWS V14.01,2013-05-25 02:10:00,
2013-05-24 22:15:00,41.9,41.1,29.99,North,350,0.0,5.0,97,0.14,,,0.47,VWS V14.01,2013-05-25 02:15:00,
2013-05-24 22:20:00,41.9,41.1,29.99,ESE,102,1.0,3.0,97,0.11,,,0.47,VWS V14.01,2013-05-25 02:20:00,
2013-05-24 22:25:00,42.0,41.2,29.99,SE,132,0.0,3.0,97,0.12,,,0.48,VWS V14.01,2013-05-25 02:25:00,
2013-05-24 22:30:00,42.0,41.2,29.99,NNE,30,0.0,4.0,97,0.10,,,0.49,VWS V14.01,2013-05-25 02:30:00,
2013-05-24 22:34:00,41.9,41.1,30.00,NNE,30,0.0,4.0,97,0.10,,,0.49,VWS V14.01,2013-05-25 02:34:00,
2013-05-24 22:39:00,42.0,41.2,30.01,NE,36,0.0,0.0,97,0.08,,,0.49,VWS V14.01,2013-05-25 02:39:00,
2013-05-24 22:44:00,42.0,41.2,30.00,NE,36,0.0,1.0,97,0.08,,,0.49,VWS V14.01,2013-05-25 02:44:00,
2013-05-24 22:49:00,42.0,41.2,29.99,East,92,0.0,4.0,97,0.06,,,0.50,VWS V14.01,2013-05-25 02:49:00,
2013-05-24 22:54:00,42.0,41.2,29.99,North,355,0.0,5.0,97,0.06,,,0.50,VWS V14.01,2013-05-25 02:54:00,
2013-05-24 22:59:00,41.9,41.1,29.99,NNW,331,0.0,6.0,97,0.05,,,0.50,VWS V14.01,2013-05-25 02:59:00,
2013-05-24 23:04:00,41.8,41.0,29.99,NNE,28,0.0,6.0,97,0.06,,,0.51,VWS V14.01,2013-05-25 03:04:00,
2013-05-24 23:09:00,41.8,41.0,30.00,NNW,348,0.0,5.0,97,0.05,,,0.51,VWS V14.01,2013-05-25 03:09:00,
2013-05-24 23:14:00,41.8,41.0,29.99,North,350,0.0,6.0,97,0.05,,,0.51,VWS V14.01,2013-05-25 03:14:00,
2013-05-24 23:19:00,41.7,40.9,29.99,NNW,336,0.0,8.0,97,0.06,,,0.53,VWS V14.01,2013-05-25 03:19:00,
2013-05-24 23:24:00,41.6,40.8,29.99,North,355,2.0,8.0,97,0.06,,,0.53,VWS V14.01,2013-05-25 03:24:00,
2013-05-24 23:29:00,41.6,40.8,29.99,North,5,0.0,5.0,97,0.05,,,0.53,VWS V14.01,2013-05-25 03:29:00,
2013-05-24 23:34:00,41.5,40.7,29.99,NNW,337,3.0,5.0,97,0.06,,,0.54,VWS V14.01,2013-05-25 03:34:00,
2013-05-24 23:39:00,41.6,40.8,29.99,North,355,1.0,5.0,97,0.05,,,0.54,VWS V14.01,2013-05-25 03:39:00,
2013-05-24 23:44:00,41.6,40.8,29.99,North,355,0.0,5.0,97,0.06,,,0.55,VWS V14.01,2013-05-25 03:44:00,
2013-05-24 23:49:00,41.6,40.8,29.99,NW,322,2.0,7.0,97,0.06,,,0.55,VWS V14.01,2013-05-25 03:49:00,
2013-05-24 23:54:00,41.6,40.8,29.99,NNW,339,0.0,7.0,97,0.06,,,0.55,VWS V14.01,2013-05-25 03:54:00,
2013-05-24 23:59:00,41.6,40.8,29.99,NNE,26,0.0,5.0,97,0.05,,,0.55,VWS V14.01,2013-05-25 03:59:00,